Αγία Πετρούπολη, Russia

11:09 PM MSK on Ιανουάριος 20, 2017 (GMT +0300)
Pulkovo | | Change Station

Elev 13 ft 59.97 °N, 30.30 °E | Updated 9 minutes ago

Mostly Cloudy
Νεφελώδης
30 ° F
Feels Like 20 ° F
N
13
Ανεμος Μεταβλητός Ανεμος from Δυτικός

Σήμερα
High -- | Low -- ° F
--% Chance of Precip.
Yesterday
High -- | Low -- ° F
Precip. -- in
Ατμοσφαιρική Πίεση 29.86 in
Ορατότητα 6.2 Μίλια
Σύννεφα Διάσπαρτα Νέφη 1100 ft
Νεφελώδης 2500 ft
Δείκτης Ψυχρότητας 20 ° F
Σημείο Δρόσου 27 ° F
Υγρασία 86%
Rainfall 0.00 in
Snow Depth Not available.
9:37 AM 4:43 PM
Τελευταίο τέταρτο, 41% visible
METAR ULLI 202000Z 28006MPS 9999 SCT011 BKN025 M01/M03 Q1011 R28L/190055 NOSIG
Ατμοσφαιρική Πίεση 29.86 in
Ορατότητα 6.2 Μίλια
Σύννεφα Διάσπαρτα Νέφη 1100 ft
Νεφελώδης 2500 ft
Δείκτης Ψυχρότητας 20 ° F
Σημείο Δρόσου 27 ° F
Υγρασία 86%
Rainfall 0.00 in
Snow Depth Not available.
9:37 AM 4:43 PM
Τελευταίο τέταρτο, 41% visible
METAR ULLI 202000Z 28006MPS 9999 SCT011 BKN025 M01/M03 Q1011 R28L/190055 NOSIG

Get Your Daily Forecast Email!

Thanks for signing up!

Be on the lookout for a verification email in your inbox.

You'll start receiving the daily forecast at 8 AM.

×

10-Day Weather Forecast

×

Almanac

Αστρονομία

Jan. 20, 2017 Rise Set
Actual Time
Civil Twilight
Nautical Twilight
Astronomical Twilight
Moon
Length Of Visible Light
Διάρκεια ημέρας
Tomorrow will be .
, % of the Moon is Illuminated

Today's Extremes

Country Highs Country Lows

Community

WunderPhotos

Upload Photos

1,962,540 photos uploaded!

WunderBlog® & News

Nearby

Air Quality

  Air Quality AQ Index Pollutant
Not available.

Snow Depth

Station Depth Elevation

Earthquake Activity

City Distance Mag. Time & Date
Minimum magnitude displayed is 2.5.

Coastal Water Temperatures

Τοποθεσία Θερμοκρασία

Stations

Nearby Weather Stations

Station Location Temp Δείκτης Ψυχρότητας Σημείο Δρόσου Υγρασία Ανεμος Precip. Elev Ενημερώθηκε Type